Time;durP1;ratioP1;P1;durP2;ratioP2;P2;SDS_P1;SDS_P2;PMS_P1;PMS_P2;Temp;Humidity;BMP_temperature;BMP_pressure;BME280_temperature;BME280_humidity;BME280_pressure;Samples;Min_cycle;Max_cycle;Signal;HPM_P1;HPM_P2
2022/03/25 00:00:31;;;;;;;128.48;54.78;;;;;;;;;;10354498;28;20073;-67
2022/03/25 00:05:44;;;;;;;127.28;54.75;;;;;;;;;;10366932;28;20076;-68
2022/03/25 00:10:47;;;;;;;134.00;58.92;;;;;;;;;;10352965;28;20046;-67
2022/03/25 00:15:49;;;;;;;132.90;57.97;;;;;;;;;;10352851;28;20061;-67
2022/03/25 00:20:53;;;;;;;130.57;59.10;;;;;;;;;;10352563;28;20053;-67
2022/03/25 00:25:56;;;;;;;130.50;55.25;;;;;;;;;;10370696;28;20349;-67
2022/03/25 00:30:59;;;;;;;138.20;56.92;;;;;;;;;;10391137;28;20082;-67
2022/03/25 00:36:02;;;;;;;128.68;57.90;;;;;;;;;;10375219;28;20055;-67
2022/03/25 00:41:07;;;;;;;136.45;58.95;;;;;;;;;;10363414;28;20256;-67
2022/03/25 00:46:10;;;;;;;141.00;60.28;;;;;;;;;;10362920;28;20239;-67
2022/03/25 00:51:13;;;;;;;128.95;56.78;;;;;;;;;;10351546;28;20054;-67
2022/03/25 00:56:16;;;;;;;126.20;57.42;;;;;;;;;;10364462;28;20056;-67
2022/03/25 01:01:19;;;;;;;133.45;58.42;;;;;;;;;;10367054;28;20340;-67
2022/03/25 01:06:21;;;;;;;135.98;59.08;;;;;;;;;;10351039;28;20054;-67
2022/03/25 01:11:25;;;;;;;147.18;60.42;;;;;;;;;;10352205;28;20054;-67
2022/03/25 01:16:28;;;;;;;137.75;60.15;;;;;;;;;;10350520;28;20330;-67
2022/03/25 01:21:30;;;;;;;133.35;60.30;;;;;;;;;;10352683;28;20069;-68
2022/03/25 01:26:34;;;;;;;142.30;59.28;;;;;;;;;;10392314;28;20148;-69
2022/03/25 01:31:36;;;;;;;130.88;58.53;;;;;;;;;;10391676;28;20062;-67
2022/03/25 01:36:39;;;;;;;134.00;60.67;;;;;;;;;;10376768;28;20116;-66
2022/03/25 01:41:47;;;;;;;134.85;59.72;;;;;;;;;;10349695;28;20058;-67
2022/03/25 01:46:49;;;;;;;130.38;55.70;;;;;;;;;;10360579;28;20048;-67
2022/03/25 01:51:54;;;;;;;128.77;57.85;;;;;;;;;;10382941;28;20309;-67
2022/03/25 01:57:00;;;;;;;125.13;55.42;;;;;;;;;;10358897;28;20043;-66
2022/03/25 02:02:04;;;;;;;110.55;51.78;;;;;;;;;;10359031;28;20061;-67
2022/03/25 02:07:07;;;;;;;122.10;53.10;;;;;;;;;;10356541;28;20085;-67
2022/03/25 02:12:13;;;;;;;116.85;52.28;;;;;;;;;;10358409;28;20341;-67
2022/03/25 02:17:15;;;;;;;113.88;50.40;;;;;;;;;;10358090;28;20058;-67
2022/03/25 02:22:20;;;;;;;113.22;48.95;;;;;;;;;;10355893;28;20062;-68
2022/03/25 02:27:24;;;;;;;113.97;48.70;;;;;;;;;;10368277;28;20042;-67
2022/03/25 02:32:26;;;;;;;109.53;48.60;;;;;;;;;;10356029;28;20070;-68
2022/03/25 02:37:31;;;;;;;105.45;48.15;;;;;;;;;;10362882;28;20258;-67
2022/03/25 02:42:33;;;;;;;108.55;45.47;;;;;;;;;;10376929;28;20046;-69
2022/03/25 02:47:35;;;;;;;102.85;46.33;;;;;;;;;;10381122;28;20050;-67
2022/03/25 02:52:39;;;;;;;100.75;46.50;;;;;;;;;;10367336;28;20069;-67
2022/03/25 02:57:42;;;;;;;105.40;45.92;;;;;;;;;;10365814;28;20057;-67
2022/03/25 03:02:44;;;;;;;102.13;44.47;;;;;;;;;;10352907;28;20046;-67
2022/03/25 03:07:48;;;;;;;93.72;44.58;;;;;;;;;;10353898;28;20088;-67
2022/03/25 03:12:52;;;;;;;95.35;44.55;;;;;;;;;;10352311;28;20093;-67
2022/03/25 03:17:54;;;;;;;97.78;44.72;;;;;;;;;;10377170;28;20050;-67
2022/03/25 03:22:59;;;;;;;90.25;44.38;;;;;;;;;;10366267;28;20046;-68
2022/03/25 03:28:01;;;;;;;95.75;45.17;;;;;;;;;;10362923;28;20053;-68
2022/03/25 03:33:04;;;;;;;92.55;44.28;;;;;;;;;;10354682;28;20054;-68
2022/03/25 03:38:09;;;;;;;96.18;44.95;;;;;;;;;;10311151;28;1215286;-67
2022/03/25 03:43:11;;;;;;;96.82;44.42;;;;;;;;;;10352424;28;20050;-66
2022/03/25 03:48:14;;;;;;;98.78;44.47;;;;;;;;;;10376128;28;20069;-68
2022/03/25 03:53:18;;;;;;;105.50;45.47;;;;;;;;;;10378369;28;20054;-68
2022/03/25 03:58:22;;;;;;;103.18;47.58;;;;;;;;;;10367284;28;20057;-68
2022/03/25 04:03:25;;;;;;;106.38;47.75;;;;;;;;;;10369815;28;20073;-68
2022/03/25 04:08:29;;;;;;;104.47;49.38;;;;;;;;;;10379045;28;20042;-67
2022/03/25 04:13:31;;;;;;;104.80;49.70;;;;;;;;;;10385941;28;20046;-68
2022/03/25 04:18:34;;;;;;;108.03;48.17;;;;;;;;;;10392767;28;20050;-67
2022/03/25 04:23:38;;;;;;;102.50;44.25;;;;;;;;;;10358820;28;20066;-68
2022/03/25 04:28:40;;;;;;;94.80;43.97;;;;;;;;;;10352225;28;20089;-67
2022/03/25 04:33:43;;;;;;;99.78;45.35;;;;;;;;;;10351514;28;20077;-68
2022/03/25 04:38:46;;;;;;;94.13;43.95;;;;;;;;;;10398429;28;20045;-68
2022/03/25 04:43:49;;;;;;;97.47;47.05;;;;;;;;;;10376490;28;20387;-67
2022/03/25 04:48:51;;;;;;;111.53;50.58;;;;;;;;;;10353081;28;20237;-68
2022/03/25 04:53:54;;;;;;;108.10;50.72;;;;;;;;;;10352345;28;20078;-67
2022/03/25 04:58:57;;;;;;;103.00;47.58;;;;;;;;;;10351320;28;20057;-68
2022/03/25 05:03:59;;;;;;;87.90;45.13;;;;;;;;;;10351581;28;20278;-68
2022/03/25 05:09:03;;;;;;;87.72;44.13;;;;;;;;;;10392954;28;20387;-68
2022/03/25 05:14:05;;;;;;;81.53;40.92;;;;;;;;;;10311674;28;20256;-68
2022/03/25 05:19:09;;;;;;;96.15;52.47;;;;;;;;;;10311283;28;20054;-67
2022/03/25 05:24:13;;;;;;;91.93;50.45;;;;;;;;;;10351964;28;20054;-67
2022/03/25 05:29:15;;;;;;;73.70;41.00;;;;;;;;;;10390270;28;20050;-68
2022/03/25 05:34:18;;;;;;;70.53;38.28;;;;;;;;;;10351083;28;20069;-68
2022/03/25 05:39:22;;;;;;;65.10;37.85;;;;;;;;;;10390156;28;20049;-68
2022/03/25 05:44:24;;;;;;;61.77;36.93;;;;;;;;;;10391037;28;20057;-68
2022/03/25 05:49:27;;;;;;;66.25;36.38;;;;;;;;;;10352872;28;20267;-69
2022/03/25 05:54:30;;;;;;;57.67;33.85;;;;;;;;;;10350285;28;20054;-67
2022/03/25 05:59:32;;;;;;;54.70;31.70;;;;;;;;;;10387863;28;20065;-70
2022/03/25 06:04:35;;;;;;;52.90;31.40;;;;;;;;;;10353492;28;20050;-68
2022/03/25 06:09:41;;;;;;;48.90;29.87;;;;;;;;;;10385598;28;20202;-68
2022/03/25 06:14:43;;;;;;;51.58;30.75;;;;;;;;;;10345877;28;20338;-68
2022/03/25 06:19:46;;;;;;;44.03;26.42;;;;;;;;;;10349436;28;20081;-67
2022/03/25 06:24:50;;;;;;;;;;;;;;;;;;10343617;28;20047;-66
2022/03/25 06:29:52;;;;;;;38.80;24.67;;;;;;;;;;10348463;28;19972;-69
2022/03/25 06:34:56;;;;;;;38.88;24.90;;;;;;;;;;10370620;28;20090;-68
2022/03/25 06:39:59;;;;;;;43.10;26.50;;;;;;;;;;10356546;28;20054;-68
2022/03/25 06:45:02;;;;;;;42.22;24.58;;;;;;;;;;10373919;28;20069;-71
2022/03/25 06:50:06;;;;;;;39.97;26.27;;;;;;;;;;10355867;28;20251;-70
2022/03/25 06:55:11;;;;;;;42.70;25.67;;;;;;;;;;10354835;28;20252;-67
2022/03/25 07:00:14;;;;;;;36.03;24.77;;;;;;;;;;10388914;28;20072;-68
2022/03/25 07:05:17;;;;;;;38.83;25.30;;;;;;;;;;10364155;28;20050;-70
2022/03/25 07:10:23;;;;;;;36.80;23.48;;;;;;;;;;10355200;28;20273;-69
2022/03/25 07:15:25;;;;;;;37.05;26.50;;;;;;;;;;10356687;28;20261;-68
2022/03/25 07:20:29;;;;;;;36.45;25.52;;;;;;;;;;10354894;28;20277;-68
2022/03/25 07:25:32;;;;;;;40.38;25.55;;;;;;;;;;10354846;28;20073;-72
2022/03/25 07:30:37;;;;;;;33.25;24.85;;;;;;;;;;10354797;28;20089;-70
2022/03/25 07:35:39;;;;;;;36.85;23.80;;;;;;;;;;10368604;28;20070;-68
2022/03/25 07:40:44;;;;;;;46.95;25.02;;;;;;;;;;10395466;28;20050;-68
2022/03/25 07:45:47;;;;;;;34.72;24.95;;;;;;;;;;10363077;28;20062;-67
2022/03/25 07:50:49;;;;;;;29.23;23.20;;;;;;;;;;10355189;28;20322;-71
2022/03/25 07:55:53;;;;;;;46.28;24.70;;;;;;;;;;10353647;28;20054;-67
2022/03/25 08:00:55;;;;;;;34.85;23.92;;;;;;;;;;10352872;28;20053;-70
2022/03/25 08:05:58;;;;;;;27.92;23.02;;;;;;;;;;10376400;28;20069;-68
2022/03/25 08:11:02;;;;;;;36.55;23.10;;;;;;;;;;10352993;28;20050;-67
2022/03/25 08:16:04;;;;;;;32.13;22.25;;;;;;;;;;10351414;28;20061;-67
2022/03/25 08:21:07;;;;;;;36.08;22.23;;;;;;;;;;10352528;28;20062;-69
2022/03/25 08:31:34;;;;;;;34.03;22.63;;;;;;;;;;10392918;28;20077;-70
2022/03/25 08:36:37;;;;;;;34.20;22.25;;;;;;;;;;10369590;28;20070;-68
2022/03/25 08:41:42;;;;;;;36.25;22.67;;;;;;;;;;10351725;28;20089;-68
2022/03/25 08:46:44;;;;;;;34.30;23.58;;;;;;;;;;10348956;28;20078;-71
2022/03/25 08:51:46;;;;;;;32.45;22.52;;;;;;;;;;10351210;28;20046;-70
2022/03/25 08:56:50;;;;;;;32.83;22.75;;;;;;;;;;10350609;28;20054;-67
2022/03/25 09:01:53;;;;;;;31.60;24.98;;;;;;;;;;10351440;28;20070;-69
2022/03/25 09:06:55;;;;;;;27.10;22.92;;;;;;;;;;10350462;28;20054;-68
2022/03/25 09:11:59;;;;;;;28.95;22.55;;;;;;;;;;10351784;28;20077;-69
2022/03/25 09:17:01;;;;;;;35.00;23.92;;;;;;;;;;10361974;28;20133;-70
2022/03/25 09:22:05;;;;;;;31.75;24.27;;;;;;;;;;10352143;28;20219;-71
2022/03/25 09:27:09;;;;;;;30.60;25.42;;;;;;;;;;10350557;28;20073;-68
2022/03/25 09:32:11;;;;;;;36.88;27.77;;;;;;;;;;10360716;28;20054;-68
2022/03/25 09:37:15;;;;;;;41.80;30.30;;;;;;;;;;10366027;28;20066;-72
2022/03/25 09:42:20;;;;;;;53.00;34.58;;;;;;;;;;10365938;28;20077;-68
2022/03/25 09:47:22;;;;;;;54.63;35.47;;;;;;;;;;10368557;28;20330;-66
2022/03/25 09:52:26;;;;;;;67.47;39.25;;;;;;;;;;10348683;28;20065;-67
2022/03/25 09:57:33;;;;;;;54.60;37.85;;;;;;;;;;10356383;28;20054;-70
2022/03/25 10:02:35;;;;;;;60.13;35.35;;;;;;;;;;10382047;28;20057;-68
2022/03/25 10:07:45;;;;;;;66.93;38.13;;;;;;;;;;10353875;28;20046;-70
2022/03/25 10:12:50;;;;;;;56.50;33.50;;;;;;;;;;10369148;28;20112;-69
2022/03/25 10:17:54;;;;;;;73.10;40.25;;;;;;;;;;10358561;28;20186;-68
2022/03/25 10:23:09;;;;;;;86.63;57.13;;;;;;;;;;10356121;28;20105;-66
2022/03/25 10:28:26;;;;;;;56.88;34.35;;;;;;;;;;10354832;28;20054;-70
2022/03/25 10:33:34;;;;;;;51.97;31.77;;;;;;;;;;10405839;28;20065;-67
2022/03/25 10:38:46;;;;;;;61.25;34.38;;;;;;;;;;10357917;28;20074;-68
2022/03/25 10:43:55;;;;;;;56.53;32.92;;;;;;;;;;10374731;28;20117;-66
2022/03/25 10:48:58;;;;;;;55.30;35.05;;;;;;;;;;10358569;28;20050;-66
2022/03/25 10:54:02;;;;;;;57.90;33.55;;;;;;;;;;10355036;28;20077;-66
2022/03/25 10:59:05;;;;;;;58.33;33.38;;;;;;;;;;10355901;28;20376;-66
2022/03/25 11:04:08;;;;;;;58.58;31.48;;;;;;;;;;10367553;28;20053;-66
2022/03/25 11:09:10;;;;;;;55.42;32.35;;;;;;;;;;10355319;28;20050;-67
2022/03/25 11:14:14;;;;;;;75.15;51.90;;;;;;;;;;10365508;28;20049;-66
2022/03/25 11:19:17;;;;;;;54.60;32.88;;;;;;;;;;10352813;28;20226;-65
2022/03/25 11:24:27;;;;;;;55.80;34.63;;;;;;;;;;10367810;28;20046;-66
2022/03/25 11:29:32;;;;;;;53.03;33.50;;;;;;;;;;10380770;28;20054;-67
2022/03/25 11:34:41;;;;;;;56.28;33.00;;;;;;;;;;10353403;28;20061;-68
2022/03/25 11:39:43;;;;;;;51.15;30.15;;;;;;;;;;10352912;28;20062;-68
2022/03/25 11:44:47;;;;;;;56.92;33.85;;;;;;;;;;10360709;28;20046;-67
2022/03/25 11:49:49;;;;;;;63.60;41.23;;;;;;;;;;10357240;28;20081;-67
2022/03/25 11:54:55;;;;;;;51.65;29.17;;;;;;;;;;10351291;28;20054;-70
2022/03/25 12:00:02;;;;;;;48.25;28.33;;;;;;;;;;10350553;28;20363;-69
2022/03/25 12:05:06;;;;;;;48.38;28.48;;;;;;;;;;10352093;28;20042;-67
2022/03/25 12:10:46;;;;;;;48.27;28.47;;;;;;;;;;10351552;28;20333;-68
2022/03/25 12:15:52;;;;;;;63.50;44.80;;;;;;;;;;10364115;28;20089;-70
2022/03/25 12:20:54;;;;;;;52.75;36.80;;;;;;;;;;10364341;28;20042;-68
2022/03/25 12:25:56;;;;;;;56.10;34.05;;;;;;;;;;10350907;28;20074;-70
2022/03/25 12:31:05;;;;;;;58.50;34.75;;;;;;;;;;10380472;28;20042;-66
2022/03/25 12:36:11;;;;;;;70.35;39.20;;;;;;;;;;10386763;28;20120;-68
2022/03/25 12:41:26;;;;;;;50.88;30.95;;;;;;;;;;10350974;28;20039;-67
2022/03/25 12:46:31;;;;;;;54.53;31.77;;;;;;;;;;10349418;28;20042;-69
2022/03/25 12:51:34;;;;;;;46.33;32.58;;;;;;;;;;10350371;28;20354;-68
2022/03/25 12:56:36;;;;;;;47.25;27.92;;;;;;;;;;10376126;28;20058;-71
2022/03/25 13:01:45;;;;;;;45.42;28.52;;;;;;;;;;10378230;28;20088;-67
2022/03/25 13:06:48;;;;;;;43.83;27.40;;;;;;;;;;10361690;28;20289;-70
2022/03/25 13:11:54;;;;;;;59.13;41.47;;;;;;;;;;10379528;28;20070;-68
2022/03/25 13:16:57;;;;;;;45.00;27.40;;;;;;;;;;10385020;28;20088;-67
2022/03/25 13:22:19;;;;;;;50.73;33.10;;;;;;;;;;10348706;28;20050;-65
2022/03/25 13:27:22;;;;;;;63.78;42.65;;;;;;;;;;10362575;28;20306;-67
2022/03/25 13:32:34;;;;;;;54.80;32.47;;;;;;;;;;10349937;28;20376;-67
2022/03/25 13:37:38;;;;;;;39.90;23.42;;;;;;;;;;10347210;28;20081;-67
2022/03/25 13:42:41;;;;;;;51.90;28.98;;;;;;;;;;10360472;28;20061;-66
2022/03/25 13:47:44;;;;;;;35.33;21.10;;;;;;;;;;10363614;28;20085;-66
2022/03/25 13:52:59;;;;;;;36.55;19.48;;;;;;;;;;10359821;28;20080;-67
2022/03/25 13:58:01;;;;;;;37.13;20.67;;;;;;;;;;10374658;28;20050;-68
2022/03/25 14:03:06;;;;;;;38.13;22.23;;;;;;;;;;10359034;28;20049;-69
2022/03/25 14:08:10;;;;;;;36.30;20.45;;;;;;;;;;10360363;28;20297;-67
2022/03/25 14:13:12;;;;;;;44.13;18.55;;;;;;;;;;10359641;28;20280;-67
2022/03/25 14:18:20;;;;;;;33.47;16.67;;;;;;;;;;10358476;28;20372;-67
2022/03/25 14:23:23;;;;;;;40.53;17.48;;;;;;;;;;10355910;28;20065;-70
2022/03/25 14:28:28;;;;;;;27.05;16.05;;;;;;;;;;10358228;28;20320;-68
2022/03/25 14:33:32;;;;;;;32.97;16.30;;;;;;;;;;10396225;28;20413;-69
2022/03/25 14:38:34;;;;;;;39.42;18.10;;;;;;;;;;10358514;28;20070;-67
2022/03/25 14:43:37;;;;;;;36.60;17.13;;;;;;;;;;10367202;28;20053;-67
2022/03/25 14:48:41;;;;;;;33.22;17.67;;;;;;;;;;10355090;28;20114;-69
2022/03/25 14:53:43;;;;;;;45.92;21.00;;;;;;;;;;10355957;28;20046;-66
2022/03/25 14:58:46;;;;;;;41.47;20.83;;;;;;;;;;10355313;28;20073;-68
2022/03/25 15:03:50;;;;;;;40.33;21.13;;;;;;;;;;10353976;28;20089;-66
2022/03/25 15:08:52;;;;;;;37.83;20.55;;;;;;;;;;10383263;28;20068;-67
2022/03/25 15:13:54;;;;;;;46.50;19.52;;;;;;;;;;10394945;28;20100;-70
2022/03/25 15:18:58;;;;;;;41.72;18.85;;;;;;;;;;10352998;28;20062;-68
2022/03/25 15:24:01;;;;;;;35.00;18.87;;;;;;;;;;10352231;28;20118;-66
2022/03/25 15:29:04;;;;;;;37.03;17.92;;;;;;;;;;10370084;28;20100;-67
2022/03/25 15:44:43;;;;;;;42.00;20.45;;;;;;;;;;10354447;28;20050;-70
2022/03/25 15:49:47;;;;;;;31.55;18.58;;;;;;;;;;10353459;28;20147;-68
2022/03/25 15:54:50;;;;;;;49.17;25.80;;;;;;;;;;10352896;28;20062;-70
2022/03/25 15:59:53;;;;;;;38.03;20.30;;;;;;;;;;10373104;28;20077;-68
2022/03/25 16:04:56;;;;;;;44.03;21.80;;;;;;;;;;10390905;28;20114;-67
2022/03/25 16:09:59;;;;;;;47.45;22.98;;;;;;;;;;10371839;28;20057;-71
2022/03/25 16:15:01;;;;;;;47.63;22.80;;;;;;;;;;10353001;28;20078;-67
2022/03/25 16:20:06;;;;;;;51.13;21.98;;;;;;;;;;10350359;28;20038;-70
2022/03/25 16:25:10;;;;;;;54.17;32.95;;;;;;;;;;10362748;28;20062;-71
2022/03/25 16:30:15;;;;;;;51.83;26.60;;;;;;;;;;10358061;28;20286;-66
2022/03/25 16:35:21;;;;;;;;;;;;;;;;;;10356616;28;20353;-71
2022/03/25 16:40:27;;;;;;;63.33;33.45;;;;;;;;;;10357171;28;19925;-69
2022/03/25 16:45:31;;;;;;;81.32;37.42;;;;;;;;;;10358622;28;20408;-70
2022/03/25 16:50:35;;;;;;;75.50;37.50;;;;;;;;;;10339930;28;20066;-67
2022/03/25 16:55:38;;;;;;;69.53;31.60;;;;;;;;;;10388766;28;20270;-64
2022/03/25 17:00:41;;;;;;;70.05;34.55;;;;;;;;;;10381910;28;20064;-68
2022/03/25 17:05:45;;;;;;;61.05;31.98;;;;;;;;;;10359044;28;20054;-66
2022/03/25 17:10:48;;;;;;;63.95;34.03;;;;;;;;;;10357925;28;20298;-66
2022/03/25 17:15:51;;;;;;;58.78;30.42;;;;;;;;;;10357066;28;20046;-69
2022/03/25 17:20:57;;;;;;;53.55;29.45;;;;;;;;;;10320144;28;20050;-68
2022/03/25 17:26:00;;;;;;;69.05;34.75;;;;;;;;;;10386352;28;20034;-70
2022/03/25 17:31:03;;;;;;;80.68;41.60;;;;;;;;;;10354793;28;20057;-68
2022/03/25 17:36:10;;;;;;;97.65;45.80;;;;;;;;;;10353454;28;20054;-68
2022/03/25 17:41:12;;;;;;;89.53;43.83;;;;;;;;;;10314041;28;20106;-68
2022/03/25 17:46:15;;;;;;;81.18;40.03;;;;;;;;;;10349857;28;20042;-67
2022/03/25 17:51:19;;;;;;;68.78;36.58;;;;;;;;;;10352996;28;20049;-69
2022/03/25 17:56:22;;;;;;;71.53;35.78;;;;;;;;;;10357209;28;20055;-68
2022/03/25 18:01:24;;;;;;;83.30;39.17;;;;;;;;;;10355028;28;20038;-68
2022/03/25 18:06:29;;;;;;;76.85;36.53;;;;;;;;;;10355090;28;20066;-68
2022/03/25 18:11:31;;;;;;;72.63;35.80;;;;;;;;;;10356157;28;20073;-69
2022/03/25 18:16:35;;;;;;;81.18;38.50;;;;;;;;;;10356474;28;20061;-69
2022/03/25 18:21:39;;;;;;;88.78;44.80;;;;;;;;;;10350915;28;20042;-67
2022/03/25 18:26:42;;;;;;;104.78;62.05;;;;;;;;;;10352103;28;20172;-67
2022/03/25 18:31:44;;;;;;;75.75;38.47;;;;;;;;;;10355636;28;20046;-69
2022/03/25 18:36:48;;;;;;;81.95;40.17;;;;;;;;;;10359093;28;20065;-69
2022/03/25 18:41:51;;;;;;;81.60;40.03;;;;;;;;;;10371431;28;20273;-69
2022/03/25 18:46:53;;;;;;;92.75;40.63;;;;;;;;;;10355172;28;20046;-70
2022/03/25 18:51:58;;;;;;;76.63;38.92;;;;;;;;;;10357904;28;20046;-70
2022/03/25 18:57:02;;;;;;;81.70;40.38;;;;;;;;;;10371714;28;20061;-68
2022/03/25 19:02:06;;;;;;;81.38;36.88;;;;;;;;;;10357489;28;20109;-68
2022/03/25 19:07:09;;;;;;;74.15;37.22;;;;;;;;;;10361264;28;20061;-68
2022/03/25 19:12:12;;;;;;;74.88;35.80;;;;;;;;;;10356093;28;20105;-68
2022/03/25 19:17:15;;;;;;;79.10;35.92;;;;;;;;;;10388567;28;20060;-70
2022/03/25 19:22:20;;;;;;;73.97;40.97;;;;;;;;;;10368181;28;20058;-67
2022/03/25 19:27:23;;;;;;;76.00;37.88;;;;;;;;;;10356474;28;20116;-68
2022/03/25 19:32:25;;;;;;;81.05;39.35;;;;;;;;;;10357531;28;20061;-71
2022/03/25 19:37:30;;;;;;;78.45;39.38;;;;;;;;;;10361612;28;20061;-69
2022/03/25 19:42:33;;;;;;;83.17;39.10;;;;;;;;;;10356730;28;20042;-68
2022/03/25 19:47:36;;;;;;;82.90;37.20;;;;;;;;;;10355293;28;20046;-69
2022/03/25 19:52:40;;;;;;;88.35;42.28;;;;;;;;;;10354194;28;20058;-69
2022/03/25 19:57:43;;;;;;;94.03;47.63;;;;;;;;;;10384173;28;20049;-71
2022/03/25 20:02:45;;;;;;;80.53;40.08;;;;;;;;;;10393124;28;20080;-69
2022/03/25 20:07:49;;;;;;;71.07;36.35;;;;;;;;;;10354920;28;20049;-70
2022/03/25 20:12:51;;;;;;;69.03;33.28;;;;;;;;;;10355034;28;20042;-67
2022/03/25 20:17:54;;;;;;;75.32;35.42;;;;;;;;;;10356627;28;20054;-69
2022/03/25 20:22:57;;;;;;;84.65;38.50;;;;;;;;;;10356680;28;20330;-70
2022/03/25 20:28:00;;;;;;;90.03;41.03;;;;;;;;;;10353719;28;20046;-68
2022/03/25 20:33:04;;;;;;;81.70;38.92;;;;;;;;;;10354068;28;20077;-70
2022/03/25 20:38:09;;;;;;;72.15;35.15;;;;;;;;;;10353866;28;20372;-68
2022/03/25 20:43:11;;;;;;;70.67;36.23;;;;;;;;;;10366174;28;20057;-68
2022/03/25 20:48:14;;;;;;;66.60;33.42;;;;;;;;;;10357998;28;20270;-68
2022/03/25 20:53:17;;;;;;;68.60;33.67;;;;;;;;;;10392506;28;20041;-68
2022/03/25 20:58:20;;;;;;;55.88;30.83;;;;;;;;;;10356213;28;20102;-66
2022/03/25 21:03:22;;;;;;;56.67;31.95;;;;;;;;;;10353117;28;20334;-69
2022/03/25 21:08:26;;;;;;;55.80;30.00;;;;;;;;;;10352420;28;20050;-68
2022/03/25 21:13:28;;;;;;;58.10;30.95;;;;;;;;;;10354014;28;20136;-70
2022/03/25 21:18:31;;;;;;;55.60;30.60;;;;;;;;;;10351860;28;20058;-67
2022/03/25 21:23:35;;;;;;;64.40;34.33;;;;;;;;;;10353211;28;20065;-70
2022/03/25 21:28:37;;;;;;;58.20;32.17;;;;;;;;;;10327944;28;20058;-68
2022/03/25 21:33:39;;;;;;;54.58;28.13;;;;;;;;;;10353418;28;20301;-69
2022/03/25 21:38:43;;;;;;;67.28;30.05;;;;;;;;;;10353777;28;20066;-68
2022/03/25 21:43:46;;;;;;;58.15;29.33;;;;;;;;;;10367373;28;20046;-68
2022/03/25 21:48:48;;;;;;;61.97;29.98;;;;;;;;;;10362416;28;20062;-70
2022/03/25 21:53:52;;;;;;;58.42;28.58;;;;;;;;;;10337165;28;20080;-70
2022/03/25 21:58:55;;;;;;;50.03;27.83;;;;;;;;;;10352545;28;20053;-69
2022/03/25 22:03:57;;;;;;;50.38;25.95;;;;;;;;;;10350047;28;20402;-69
2022/03/25 22:09:01;;;;;;;54.65;26.75;;;;;;;;;;10358061;28;20046;-68
2022/03/25 22:14:03;;;;;;;52.50;27.23;;;;;;;;;;10359201;28;20100;-68
2022/03/25 22:19:06;;;;;;;54.05;26.83;;;;;;;;;;10397596;28;20050;-68
2022/03/25 22:24:11;;;;;;;51.80;25.55;;;;;;;;;;10384931;28;20062;-68
2022/03/25 22:29:17;;;;;;;53.15;26.77;;;;;;;;;;10357703;28;20050;-69
2022/03/25 22:34:19;;;;;;;;;;;;;;;;;;10358554;28;20038;-70
2022/03/25 22:39:23;;;;;;;53.92;26.77;;;;;;;;;;10399867;28;19921;-70
2022/03/25 22:44:25;;;;;;;53.38;27.30;;;;;;;;;;10392749;28;20361;-68
2022/03/25 22:49:27;;;;;;;62.42;29.52;;;;;;;;;;10398182;28;20073;-68
2022/03/25 22:54:31;;;;;;;61.20;30.05;;;;;;;;;;10379818;28;20050;-70
2022/03/25 22:59:33;;;;;;;59.97;31.20;;;;;;;;;;10357138;28;20046;-69
2022/03/25 23:04:35;;;;;;;60.05;30.55;;;;;;;;;;10380438;28;20097;-68
2022/03/25 23:09:39;;;;;;;55.63;30.02;;;;;;;;;;10397147;28;20090;-67
2022/03/25 23:14:41;;;;;;;53.60;31.00;;;;;;;;;;10384344;28;20042;-68
2022/03/25 23:19:44;;;;;;;62.25;31.15;;;;;;;;;;10353975;28;20042;-69
2022/03/25 23:24:48;;;;;;;66.78;30.80;;;;;;;;;;10356283;28;20073;-69
2022/03/25 23:29:50;;;;;;;61.00;30.80;;;;;;;;;;10358474;28;20061;-68
2022/03/25 23:34:53;;;;;;;55.38;29.45;;;;;;;;;;10375801;28;20254;-68
2022/03/25 23:39:57;;;;;;;58.78;28.58;;;;;;;;;;10356324;28;20101;-67
2022/03/25 23:44:59;;;;;;;56.72;28.85;;;;;;;;;;10355803;28;20105;-68
2022/03/25 23:50:02;;;;;;;62.28;30.15;;;;;;;;;;10355610;28;20329;-69
2022/03/25 23:55:08;;;;;;;57.08;29.00;;;;;;;;;;10354919;28;20050;-69
